Time,TemperatureF,DewpointF,PressureIn,WindDirection,WindDirectionDegrees,WindSpeedMPH,WindSpeedGustMPH,Humidity,HourlyPrecipIn,Conditions,Clouds,dailyrainin,SolarRadiationWatts/m^2,SoftwareType,DateUTC
2013-03-05 00:01:00,56.0,47.0,-100.00,NW,309,1.0,2.0,71,0.00,,,0.00,0.000000,,2013-03-05 06:01:00,
2013-03-05 00:22:00,56.0,48.0,-100.00,North,0,1.0,4.0,74,0.00,,,0.00,0.000000,,2013-03-05 06:22:00,
2013-03-05 00:32:00,56.0,48.0,-100.00,North,0,1.0,4.0,74,0.00,,,0.00,0.000000,,2013-03-05 06:32:00,
2013-03-05 00:42:00,56.0,48.0,-100.00,North,0,1.0,4.0,74,0.00,,,0.00,0.000000,,2013-03-05 06:42:00,
2013-03-05 00:52:00,56.0,48.0,-100.00,North,0,1.0,4.0,74,0.00,,,0.00,0.000000,,2013-03-05 06:52:00,
2013-03-05 01:01:00,56.0,48.0,-100.00,North,0,1.0,4.0,74,0.00,,,0.00,0.000000,,2013-03-05 07:01:00,
2013-03-05 01:02:00,58.0,41.0,-100.00,NW,323,8.0,20.0,54,0.00,,,0.00,0.000000,,2013-03-05 07:02:00,
2013-03-05 01:22:00,58.0,41.0,-100.00,NW,323,8.0,20.0,54,0.00,,,0.00,0.000000,,2013-03-05 07:22:00,
2013-03-05 01:32:00,58.0,41.0,-100.00,NW,323,8.0,20.0,54,0.00,,,0.00,0.000000,,2013-03-05 07:32:00,
2013-03-05 01:42:00,58.0,41.0,-100.00,NW,323,8.0,20.0,54,0.00,,,0.00,0.000000,,2013-03-05 07:42:00,
2013-03-05 01:52:00,58.0,41.0,-100.00,NW,323,8.0,20.0,54,0.00,,,0.00,0.000000,,2013-03-05 07:52:00,
2013-03-05 03:32:00,50.0,37.0,-100.00,NW,304,11.0,22.0,60,-99.99,,,0.00,0.000000,,2013-03-05 09:32:00,
2013-03-05 03:43:00,50.0,37.0,-100.00,NW,304,11.0,22.0,60,-99.99,,,0.00,0.000000,,2013-03-05 09:43:00,
2013-03-05 03:52:00,50.0,37.0,-100.00,NW,304,11.0,22.0,60,-99.99,,,0.00,0.000000,,2013-03-05 09:52:00,
2013-03-05 04:01:00,50.0,37.0,-100.00,NW,304,11.0,22.0,60,-99.99,,,0.00,0.000000,,2013-03-05 10:01:00,
2013-03-05 04:22:00,47.0,35.0,-100.00,NNW,328,15.0,26.0,63,0.00,,,0.00,0.000000,,2013-03-05 10:22:00,
2013-03-05 04:32:00,47.0,35.0,-100.00,NNW,328,15.0,26.0,63,0.00,,,0.00,0.000000,,2013-03-05 10:32:00,
2013-03-05 04:42:00,47.0,35.0,-100.00,NNW,328,15.0,26.0,63,0.00,,,0.00,0.000000,,2013-03-05 10:42:00,
2013-03-05 04:52:00,47.0,35.0,-100.00,NNW,328,15.0,26.0,63,0.00,,,0.00,0.000000,,2013-03-05 10:52:00,
2013-03-05 05:01:00,47.0,35.0,-100.00,NNW,328,15.0,26.0,63,0.00,,,0.00,0.000000,,2013-03-05 11:01:00,
2013-03-05 05:02:00,46.0,33.0,-100.00,NW,320,9.0,24.0,61,0.00,,,0.00,0.000000,,2013-03-05 11:02:00,
2013-03-05 05:22:00,46.0,33.0,-100.00,NW,320,9.0,24.0,61,0.00,,,0.00,0.000000,,2013-03-05 11:22:00,
2013-03-05 05:32:00,46.0,33.0,-100.00,NW,320,9.0,24.0,61,0.00,,,0.00,0.000000,,2013-03-05 11:32:00,
2013-03-05 05:42:00,46.0,33.0,-100.00,NW,320,9.0,24.0,61,0.00,,,0.00,0.000000,,2013-03-05 11:42:00,
2013-03-05 05:52:00,46.0,33.0,-100.00,NW,320,9.0,24.0,61,0.00,,,0.00,0.000000,,2013-03-05 11:52:00,
2013-03-05 06:02:00,45.0,34.0,-100.00,NW,324,10.0,19.0,64,0.00,,,0.00,0.000000,,2013-03-05 12:02:00,
2013-03-05 06:32:00,45.0,34.0,-100.00,NW,324,10.0,19.0,64,0.00,,,0.00,0.000000,,2013-03-05 12:32:00,
2013-03-05 06:42:00,45.0,34.0,-100.00,NW,324,10.0,19.0,64,0.00,,,0.00,0.000000,,2013-03-05 12:42:00,
2013-03-05 06:52:00,45.0,34.0,-100.00,NW,324,10.0,19.0,64,0.00,,,0.00,0.000000,,2013-03-05 12:52:00,
2013-03-05 07:02:00,43.0,33.0,-100.00,NW,321,10.0,19.0,67,0.00,,,0.00,3.000000,,2013-03-05 13:02:00,
2013-03-05 07:32:00,43.0,33.0,-100.00,NW,321,10.0,19.0,67,0.00,,,0.00,3.000000,,2013-03-05 13:32:00,
2013-03-05 07:42:00,43.0,33.0,-100.00,NW,321,10.0,19.0,67,0.00,,,0.00,3.000000,,2013-03-05 13:42:00,
2013-03-05 07:52:00,43.0,33.0,-100.00,NW,321,10.0,19.0,67,0.00,,,0.00,3.000000,,2013-03-05 13:52:00,
2013-03-05 08:32:00,44.0,32.0,-100.00,NW,323,9.0,22.0,62,0.00,,,0.00,82.000000,,2013-03-05 14:32:00,
2013-03-05 08:42:00,44.0,32.0,-100.00,NW,323,9.0,22.0,62,0.00,,,0.00,82.000000,,2013-03-05 14:42:00,
2013-03-05 08:52:00,44.0,32.0,-100.00,NW,323,9.0,22.0,62,0.00,,,0.00,82.000000,,2013-03-05 14:52:00,
2013-03-05 09:01:00,44.0,32.0,-100.00,NW,323,9.0,22.0,62,0.00,,,0.00,82.000000,,2013-03-05 15:01:00,
2013-03-05 09:32:00,46.0,29.0,-100.00,NW,326,12.0,24.0,51,0.00,,,0.00,235.000000,,2013-03-05 15:32:00,
2013-03-05 09:42:00,46.0,29.0,-100.00,NW,326,12.0,24.0,51,0.00,,,0.00,235.000000,,2013-03-05 15:42:00,
2013-03-05 09:52:00,46.0,29.0,-100.00,NW,326,12.0,24.0,51,0.00,,,0.00,235.000000,,2013-03-05 15:52:00,
2013-03-05 10:01:00,46.0,29.0,-100.00,NW,326,12.0,24.0,51,0.00,,,0.00,235.000000,,2013-03-05 16:01:00,
2013-03-05 10:32:00,49.0,27.0,-100.00,NNW,330,13.0,23.0,42,0.00,,,-99.99,610.000000,,2013-03-05 16:32:00,
2013-03-05 10:42:00,49.0,27.0,-100.00,NNW,330,13.0,23.0,42,0.00,,,-99.99,610.000000,,2013-03-05 16:42:00,
2013-03-05 10:52:00,49.0,27.0,-100.00,NNW,330,13.0,23.0,42,0.00,,,-99.99,610.000000,,2013-03-05 16:52:00,
2013-03-05 11:01:00,49.0,27.0,-100.00,NNW,330,13.0,23.0,42,0.00,,,-99.99,610.000000,,2013-03-05 17:01:00,
2013-03-05 11:32:00,51.0,24.0,-100.00,NW,319,13.0,22.0,35,0.00,,,0.00,789.000000,,2013-03-05 17:32:00,
2013-03-05 11:42:00,51.0,24.0,-100.00,NW,319,13.0,22.0,35,0.00,,,0.00,789.000000,,2013-03-05 17:42:00,
2013-03-05 11:52:00,51.0,24.0,-100.00,NW,319,13.0,22.0,35,0.00,,,0.00,789.000000,,2013-03-05 17:52:00,
2013-03-05 12:01:00,51.0,24.0,-100.00,NW,319,13.0,22.0,35,0.00,,,0.00,789.000000,,2013-03-05 18:01:00,
2013-03-05 12:32:00,53.0,19.0,-100.00,WNW,301,8.0,18.0,26,0.00,,,0.00,911.000000,,2013-03-05 18:32:00,
2013-03-05 12:42:00,53.0,19.0,-100.00,WNW,301,8.0,18.0,26,0.00,,,0.00,911.000000,,2013-03-05 18:42:00,
2013-03-05 12:53:00,53.0,19.0,-100.00,WNW,301,8.0,18.0,26,0.00,,,0.00,911.000000,,2013-03-05 18:53:00,
2013-03-05 13:01:00,53.0,19.0,-100.00,WNW,301,8.0,18.0,26,0.00,,,0.00,911.000000,,2013-03-05 19:01:00,
2013-03-05 13:32:00,53.0,16.0,-100.00,WNW,299,13.0,24.0,23,0.00,,,0.00,956.000000,,2013-03-05 19:32:00,
2013-03-05 13:42:00,53.0,16.0,-100.00,WNW,299,13.0,24.0,23,0.00,,,0.00,956.000000,,2013-03-05 19:42:00,
2013-03-05 13:52:00,53.0,16.0,-100.00,WNW,299,13.0,24.0,23,0.00,,,0.00,956.000000,,2013-03-05 19:52:00,
2013-03-05 14:01:00,53.0,16.0,-100.00,WNW,299,13.0,24.0,23,0.00,,,0.00,956.000000,,2013-03-05 20:01:00,
2013-03-05 14:02:00,53.0,15.0,-100.00,WNW,300,13.0,22.0,22,0.00,,,0.00,915.000000,,2013-03-05 20:02:00,
2013-03-05 14:22:00,53.0,15.0,-100.00,WNW,300,13.0,22.0,22,0.00,,,0.00,915.000000,,2013-03-05 20:22:00,
2013-03-05 14:32:00,53.0,15.0,-100.00,WNW,300,13.0,22.0,22,0.00,,,0.00,915.000000,,2013-03-05 20:32:00,
2013-03-05 14:42:00,53.0,15.0,-100.00,WNW,300,13.0,22.0,22,0.00,,,0.00,915.000000,,2013-03-05 20:42:00,
2013-03-05 14:52:00,53.0,15.0,-100.00,WNW,300,13.0,22.0,22,0.00,,,0.00,915.000000,,2013-03-05 20:52:00,
2013-03-05 15:32:00,54.0,15.0,-100.00,NW,307,11.0,21.0,21,0.00,,,0.00,792.000000,,2013-03-05 21:32:00,
2013-03-05 15:42:00,54.0,15.0,-100.00,NW,307,11.0,21.0,21,0.00,,,0.00,792.000000,,2013-03-05 21:42:00,
2013-03-05 15:52:00,54.0,15.0,-100.00,NW,307,11.0,21.0,21,0.00,,,0.00,792.000000,,2013-03-05 21:52:00,
2013-03-05 16:01:00,54.0,15.0,-100.00,NW,307,11.0,21.0,21,0.00,,,0.00,792.000000,,2013-03-05 22:01:00,
2013-03-05 16:32:00,54.0,16.0,-100.00,NW,304,9.0,21.0,22,0.00,,,0.00,607.000000,,2013-03-05 22:32:00,
2013-03-05 16:42:00,54.0,16.0,-100.00,NW,304,9.0,21.0,22,0.00,,,0.00,607.000000,,2013-03-05 22:42:00,
2013-03-05 16:52:00,54.0,16.0,-100.00,NW,304,9.0,21.0,22,0.00,,,0.00,607.000000,,2013-03-05 22:52:00,
2013-03-05 17:01:00,54.0,16.0,-100.00,NW,304,9.0,21.0,22,0.00,,,0.00,607.000000,,2013-03-05 23:01:00,
2013-03-05 17:32:00,53.0,18.0,-100.00,WNW,294,9.0,16.0,25,0.00,,,0.00,375.000000,,2013-03-05 23:32:00,
2013-03-05 17:42:00,53.0,18.0,-100.00,WNW,294,9.0,16.0,25,0.00,,,0.00,375.000000,,2013-03-05 23:42:00,
2013-03-05 17:53:00,53.0,18.0,-100.00,WNW,294,9.0,16.0,25,0.00,,,0.00,375.000000,,2013-03-05 23:53:00,
2013-03-05 18:01:00,53.0,18.0,-100.00,WNW,294,9.0,16.0,25,0.00,,,0.00,375.000000,,2013-03-06 00:01:00,
2013-03-05 18:02:00,50.0,19.0,-100.00,WNW,284,8.0,17.0,29,0.00,,,0.00,134.000000,,2013-03-06 00:02:00,
2013-03-05 18:22:00,50.0,19.0,-100.00,WNW,284,8.0,17.0,29,0.00,,,0.00,134.000000,,2013-03-06 00:22:00,
2013-03-05 18:32:00,50.0,19.0,-100.00,WNW,284,8.0,17.0,29,0.00,,,0.00,134.000000,,2013-03-06 00:32:00,
2013-03-05 18:42:00,50.0,19.0,-100.00,WNW,284,8.0,17.0,29,0.00,,,0.00,134.000000,,2013-03-06 00:42:00,
2013-03-05 18:52:00,50.0,19.0,-100.00,WNW,284,8.0,17.0,29,0.00,,,0.00,134.000000,,2013-03-06 00:52:00,
2013-03-05 19:32:00,46.0,20.0,-100.00,WNW,292,6.0,12.0,35,0.00,,,0.00,5.000000,,2013-03-06 01:32:00,
2013-03-05 19:42:00,46.0,20.0,-100.00,WNW,292,6.0,12.0,35,0.00,,,0.00,5.000000,,2013-03-06 01:42:00,
2013-03-05 19:52:00,46.0,20.0,-100.00,WNW,292,6.0,12.0,35,0.00,,,0.00,5.000000,,2013-03-06 01:52:00,
2013-03-05 20:01:00,46.0,20.0,-100.00,WNW,292,6.0,12.0,35,0.00,,,0.00,5.000000,,2013-03-06 02:01:00,
2013-03-05 20:22:00,44.0,19.0,-100.00,WNW,298,5.0,9.0,37,0.00,,,0.00,0.000000,,2013-03-06 02:22:00,
2013-03-05 20:32:00,44.0,19.0,-100.00,WNW,298,5.0,9.0,37,0.00,,,0.00,0.000000,,2013-03-06 02:32:00,
2013-03-05 20:42:00,44.0,19.0,-100.00,WNW,298,5.0,9.0,37,0.00,,,0.00,0.000000,,2013-03-06 02:42:00,
2013-03-05 20:52:00,44.0,19.0,-100.00,WNW,298,5.0,9.0,37,0.00,,,0.00,0.000000,,2013-03-06 02:52:00,
2013-03-05 21:01:00,44.0,19.0,-100.00,WNW,298,5.0,9.0,37,0.00,,,0.00,0.000000,,2013-03-06 03:01:00,
2013-03-05 21:02:00,42.0,20.0,-100.00,WNW,285,3.0,8.0,41,0.00,,,0.00,0.000000,,2013-03-06 03:02:00,
2013-03-05 21:22:00,42.0,20.0,-100.00,WNW,285,3.0,8.0,41,0.00,,,0.00,0.000000,,2013-03-06 03:22:00,
2013-03-05 21:32:00,42.0,20.0,-100.00,WNW,285,3.0,8.0,41,0.00,,,0.00,0.000000,,2013-03-06 03:32:00,
2013-03-05 21:42:00,42.0,20.0,-100.00,WNW,285,3.0,8.0,41,0.00,,,0.00,0.000000,,2013-03-06 03:42:00,
2013-03-05 21:52:00,42.0,20.0,-100.00,WNW,285,3.0,8.0,41,0.00,,,0.00,0.000000,,2013-03-06 03:52:00,
2013-03-05 22:32:00,40.0,20.0,-100.00,WNW,283,4.0,6.0,45,0.00,,,0.00,0.000000,,2013-03-06 04:32:00,
2013-03-05 22:42:00,40.0,20.0,-100.00,WNW,283,4.0,6.0,45,0.00,,,0.00,0.000000,,2013-03-06 04:42:00,
2013-03-05 22:52:00,40.0,20.0,-100.00,WNW,283,4.0,6.0,45,0.00,,,0.00,0.000000,,2013-03-06 04:52:00,
2013-03-05 23:01:00,40.0,20.0,-100.00,WNW,283,4.0,6.0,45,0.00,,,0.00,0.000000,,2013-03-06 05:01:00,
2013-03-05 23:02:00,32.0,23.0,-100.00,NE,44,1.0,5.0,70,0.00,,,0.00,0.000000,,2013-03-06 05:02:00,
2013-03-05 23:32:00,32.0,23.0,-100.00,NE,44,1.0,5.0,70,0.00,,,0.00,0.000000,,2013-03-06 05:32:00,
2013-03-05 23:42:00,32.0,23.0,-100.00,NE,44,1.0,5.0,70,0.00,,,0.00,0.000000,,2013-03-06 05:42:00,
2013-03-05 23:52:00,32.0,23.0,-100.00,NE,44,1.0,5.0,70,0.00,,,0.00,0.000000,,2013-03-06 05:52:00,